Time;durP1;ratioP1;P1;durP2;ratioP2;P2;SDS_P1;SDS_P2;PMS_P1;PMS_P2;Temp;Humidity;BMP_temperature;BMP_pressure;BME280_temperature;BME280_humidity;BME280_pressure;Samples;Min_cycle;Max_cycle;Signal;HPM_P1;HPM_P2
2022/03/10 00:02:09;;;;;;;63.63;21.40;;;-0.60;56.80;;;;;;5046514;28;20182;-60
2022/03/10 00:04:36;;;;;;;50.50;22.60;;;-0.60;57.00;;;;;;5048217;28;20419;-60
2022/03/10 00:07:02;;;;;;;48.73;22.40;;;-0.60;57.00;;;;;;5046666;28;20435;-60
2022/03/10 00:09:29;;;;;;;55.43;23.30;;;-0.60;56.90;;;;;;5048910;28;20423;-60
2022/03/10 00:11:56;;;;;;;46.13;22.63;;;-0.70;56.90;;;;;;5042815;28;20443;-59
2022/03/10 00:14:22;;;;;;;51.27;22.27;;;-0.70;57.00;;;;;;5047971;28;20866;-60
2022/03/10 00:16:49;;;;;;;51.03;23.07;;;-0.70;57.10;;;;;;5047878;28;20435;-58
2022/03/10 00:19:16;;;;;;;46.43;21.03;;;-0.70;57.20;;;;;;5048698;28;20971;-59
2022/03/10 00:21:45;;;;;;;44.50;22.33;;;-0.80;57.20;;;;;;5047658;28;20962;-59
2022/03/10 00:24:11;;;;;;;48.13;21.37;;;-0.80;57.30;;;;;;5042251;28;20422;-60
2022/03/10 00:26:37;;;;;;;52.57;22.40;;;-0.80;57.30;;;;;;5045273;28;20616;-60
2022/03/10 00:29:04;;;;;;;47.53;22.90;;;-0.90;57.30;;;;;;5019714;28;20252;-60
2022/03/10 00:31:29;;;;;;;47.87;22.97;;;-0.90;57.50;;;;;;5030712;28;20493;-58
2022/03/10 00:33:55;;;;;;;48.77;21.10;;;-1.00;57.40;;;;;;5030600;28;20450;-60
2022/03/10 00:36:21;;;;;;;45.23;22.40;;;-1.00;57.20;;;;;;5039045;28;20216;-59
2022/03/10 00:38:46;;;;;;;49.87;21.10;;;-1.00;57.20;;;;;;5044588;28;20719;-60
2022/03/10 00:41:12;;;;;;;43.07;21.20;;;-1.00;57.30;;;;;;5047819;28;20269;-58
2022/03/10 00:43:37;;;;;;;47.73;21.43;;;-1.00;57.40;;;;;;5040967;28;20186;-60
2022/03/10 00:46:03;;;;;;;44.07;21.27;;;-1.10;57.40;;;;;;5034533;28;20645;-61
2022/03/10 00:48:29;;;;;;;47.33;21.87;;;-1.10;57.50;;;;;;5049150;28;20181;-60
2022/03/10 00:50:54;;;;;;;50.53;22.90;;;-1.10;57.80;;;;;;5045836;28;20201;-60
2022/03/10 00:53:20;;;;;;;45.57;20.47;;;-1.10;58.10;;;;;;5046848;28;20189;-59
2022/03/10 00:55:46;;;;;;;40.37;21.03;;;-1.20;58.10;;;;;;5047235;28;20173;-61
2022/03/10 00:58:12;;;;;;;47.07;20.10;;;-1.20;58.40;;;;;;5034892;28;20195;-59
2022/03/10 01:00:38;;;;;;;52.57;21.63;;;-1.30;58.70;;;;;;5042820;28;20217;-60
2022/03/10 01:03:05;;;;;;;43.20;21.17;;;-1.30;59.00;;;;;;5048093;28;20657;-60
2022/03/10 01:05:30;;;;;;;49.40;22.30;;;-1.30;59.20;;;;;;5048274;28;20426;-60
2022/03/10 01:07:56;;;;;;;50.40;21.77;;;-1.30;59.30;;;;;;5047719;28;20431;-61
2022/03/10 01:10:22;;;;;;;43.30;21.60;;;-1.30;59.40;;;;;;5037588;28;20200;-60
2022/03/10 01:12:47;;;;;;;52.03;22.33;;;-1.30;59.20;;;;;;5044693;28;20179;-59
2022/03/10 01:15:15;;;;;;;50.50;21.93;;;-1.30;59.20;;;;;;5044255;28;20172;-60
2022/03/10 01:17:41;;;;;;;43.20;20.80;;;-1.30;59.10;;;;;;5044245;28;20179;-60
2022/03/10 01:20:07;;;;;;;45.77;20.87;;;-1.30;59.20;;;;;;5051046;28;20470;-60
2022/03/10 01:22:34;;;;;;;48.90;22.10;;;-1.40;59.30;;;;;;5052033;28;20169;-60
2022/03/10 01:25:00;;;;;;;51.87;22.20;;;-1.40;59.50;;;;;;5051958;28;20422;-59
2022/03/10 01:27:26;;;;;;;44.93;20.67;;;-1.40;59.50;;;;;;5047341;28;20750;-60
2022/03/10 01:29:51;;;;;;;49.00;21.40;;;-1.40;59.60;;;;;;5051761;28;20200;-60
2022/03/10 01:32:17;;;;;;;47.70;20.40;;;-1.40;59.60;;;;;;5050501;28;20176;-60
2022/03/10 01:34:43;;;;;;;43.87;20.30;;;-1.40;59.60;;;;;;5047272;28;20176;-60
2022/03/10 01:37:08;;;;;;;48.80;20.50;;;-1.50;59.50;;;;;;5032768;28;20261;-60
2022/03/10 01:39:34;;;;;;;43.80;20.30;;;-1.50;59.50;;;;;;5050868;28;20734;-60
2022/03/10 01:42:03;;;;;;;49.87;21.20;;;-1.60;59.80;;;;;;5051814;28;20173;-59
2022/03/10 01:44:29;;;;;;;45.70;20.50;;;-1.60;60.80;;;;;;5050320;28;20250;-59
2022/03/10 01:46:55;;;;;;;54.93;20.97;;;-1.60;60.50;;;;;;5050771;28;20424;-60
2022/03/10 01:49:21;;;;;;;50.90;21.20;;;-1.70;60.30;;;;;;5047464;28;20446;-59
2022/03/10 01:51:46;;;;;;;47.03;21.27;;;-1.70;60.50;;;;;;5045751;28;20224;-61
2022/03/10 01:54:12;;;;;;;49.93;21.17;;;-1.70;60.50;;;;;;5049218;28;20552;-61
2022/03/10 01:56:39;;;;;;;49.57;19.97;;;-1.70;60.10;;;;;;5046699;28;20208;-61
2022/03/10 01:59:05;;;;;;;51.70;20.73;;;-1.70;60.20;;;;;;5048055;28;20719;-61
2022/03/10 02:01:31;;;;;;;49.00;21.80;;;-1.70;60.40;;;;;;5046206;28;20834;-61
2022/03/10 02:03:57;;;;;;;44.03;19.93;;;-1.70;61.20;;;;;;5044285;28;20232;-60
2022/03/10 02:06:24;;;;;;;43.83;21.67;;;-1.80;60.80;;;;;;5050532;28;20794;-60
2022/03/10 02:11:36;;;;;;;51.73;23.20;;;-1.80;61.20;;;;;;5048584;28;20447;-60
2022/03/10 02:17:19;;;;;;;44.70;20.50;;;-1.80;61.30;;;;;;5050057;28;20512;-59
2022/03/10 02:19:32;;;;;;;46.83;20.90;;;-1.80;61.40;;;;;;5047475;28;20530;-59
2022/03/10 02:22:04;;;;;;;41.77;19.80;;;-1.90;61.30;;;;;;5050465;28;20415;-60
2022/03/10 02:24:30;;;;;;;45.43;21.17;;;-1.90;61.50;;;;;;5048776;28;20172;-59
2022/03/10 02:26:55;;;;;;;47.13;20.63;;;-1.90;61.70;;;;;;5049513;28;21077;-60
2022/03/10 02:29:21;;;;;;;50.27;20.87;;;-1.90;61.80;;;;;;5042049;28;20185;-59
2022/03/10 02:31:47;;;;;;;52.63;21.50;;;-1.90;62.10;;;;;;5049333;28;20695;-59
2022/03/10 02:34:12;;;;;;;49.23;22.10;;;-1.90;61.80;;;;;;5047565;28;20211;-58
2022/03/10 02:36:38;;;;;;;43.87;20.27;;;-1.90;61.30;;;;;;5043268;28;20593;-59
2022/03/10 02:39:03;;;;;;;45.00;19.13;;;-2.00;61.10;;;;;;5044509;28;20318;-59
2022/03/10 02:41:29;;;;;;;50.57;20.33;;;-2.00;61.30;;;;;;5049533;28;20198;-59
2022/03/10 02:43:55;;;;;;;50.43;21.43;;;-2.00;61.60;;;;;;5047260;28;20189;-59
2022/03/10 02:46:20;;;;;;;45.03;19.97;;;-2.10;61.40;;;;;;5048607;28;20179;-59
2022/03/10 02:48:46;;;;;;;46.53;20.47;;;-2.10;61.80;;;;;;5047563;28;20187;-60
2022/03/10 02:51:12;;;;;;;45.53;20.53;;;-2.10;62.00;;;;;;5045753;28;20415;-60
2022/03/10 02:53:38;;;;;;;52.80;19.87;;;-2.10;61.70;;;;;;5049596;28;20185;-60
2022/03/10 02:56:03;;;;;;;46.23;21.90;;;-2.10;61.30;;;;;;5029046;28;20425;-59
2022/03/10 02:58:29;;;;;;;39.50;17.90;;;-2.10;61.00;;;;;;5049085;28;20598;-61
2022/03/10 03:00:55;;;;;;;39.90;19.60;;;-2.10;61.00;;;;;;5046651;28;20537;-60
2022/03/10 03:03:21;;;;;;;40.73;18.73;;;-2.20;61.10;;;;;;5049321;28;20927;-59
2022/03/10 03:05:46;;;;;;;53.40;20.23;;;-2.20;61.10;;;;;;5048004;28;20188;-57
2022/03/10 03:08:12;;;;;;;50.83;19.77;;;-2.30;61.40;;;;;;5042225;28;20184;-59
2022/03/10 03:10:37;;;;;;;46.20;19.20;;;-2.40;61.90;;;;;;5026647;28;20303;-58
2022/03/10 03:13:07;;;;;;;51.83;20.73;;;-2.50;62.60;;;;;;5046473;28;20605;-59
2022/03/10 03:15:32;;;;;;;45.07;19.37;;;-2.50;63.50;;;;;;5026207;28;20180;-60
2022/03/10 03:17:58;;;;;;;49.57;20.73;;;-2.60;64.00;;;;;;5044668;28;20401;-59
2022/03/10 03:20:23;;;;;;;41.37;20.00;;;-2.60;64.70;;;;;;5049205;28;20224;-58
2022/03/10 03:22:49;;;;;;;43.67;19.10;;;-2.60;65.50;;;;;;5046516;28;20189;-59
2022/03/10 03:25:16;;;;;;;51.70;21.60;;;-2.60;66.30;;;;;;5045934;28;20693;-58
2022/03/10 03:27:42;;;;;;;40.90;19.93;;;-2.60;66.50;;;;;;5049205;28;20177;-59
2022/03/10 03:30:09;;;;;;;42.53;19.10;;;-2.60;66.50;;;;;;5039736;28;20464;-57
2022/03/10 03:32:35;;;;;;;47.07;19.47;;;-2.60;66.60;;;;;;5043634;28;20181;-60
2022/03/10 03:35:01;;;;;;;46.17;18.60;;;-2.60;66.70;;;;;;5047990;28;20455;-59
2022/03/10 03:37:27;;;;;;;43.70;20.17;;;-2.60;66.70;;;;;;5043858;28;20446;-59
2022/03/10 03:39:52;;;;;;;49.37;19.77;;;-2.60;66.90;;;;;;5040824;28;20466;-58
2022/03/10 03:42:18;;;;;;;44.97;18.93;;;-2.60;66.60;;;;;;5049772;28;20184;-59
2022/03/10 03:44:43;;;;;;;54.63;21.97;;;-2.50;66.60;;;;;;5047909;28;20238;-59
2022/03/10 03:47:09;;;;;;;42.27;20.07;;;-2.60;66.00;;;;;;5048617;28;20181;-59
2022/03/10 03:49:35;;;;;;;46.30;19.17;;;-2.50;65.20;;;;;;5047139;28;20675;-59
2022/03/10 03:52:00;;;;;;;47.37;19.63;;;-2.60;64.40;;;;;;5026937;28;20183;-60
2022/03/10 03:54:26;;;;;;;40.00;18.07;;;-2.60;64.60;;;;;;5045406;28;20264;-58
2022/03/10 03:56:52;;;;;;;45.30;20.70;;;-2.60;64.70;;;;;;5045068;28;20695;-60
2022/03/10 03:59:17;;;;;;;47.27;20.40;;;-2.60;65.20;;;;;;5026456;28;20200;-59
2022/03/10 04:01:43;;;;;;;41.63;19.63;;;-2.60;65.70;;;;;;5048802;28;20201;-58
2022/03/10 04:04:09;;;;;;;48.90;20.60;;;-2.70;65.40;;;;;;5048071;28;20553;-58
2022/03/10 04:06:34;;;;;;;43.07;20.50;;;-2.70;66.00;;;;;;5048772;28;20179;-60
2022/03/10 04:09:00;;;;;;;42.30;19.47;;;-2.80;65.90;;;;;;5031157;28;20185;-59
2022/03/10 04:11:26;;;;;;;44.97;19.50;;;-2.80;65.40;;;;;;5048700;28;20658;-59
2022/03/10 04:13:52;;;;;;;43.73;18.60;;;-2.80;65.10;;;;;;5047175;28;20440;-58
2022/03/10 04:16:18;;;;;;;50.07;18.60;;;-2.80;64.90;;;;;;5047070;28;20317;-58
2022/03/10 04:18:44;;;;;;;45.77;20.47;;;-2.90;66.10;;;;;;5047136;28;20212;-59
2022/03/10 04:21:09;;;;;;;48.50;19.63;;;-2.90;67.00;;;;;;5048609;28;20529;-59
2022/03/10 04:23:35;;;;;;;45.87;18.43;;;-2.90;67.80;;;;;;5041910;28;20239;-60
2022/03/10 04:26:00;;;;;;;52.87;19.63;;;-2.90;68.30;;;;;;5040751;28;20650;-59
2022/03/10 04:28:26;;;;;;;47.50;20.97;;;-3.00;69.40;;;;;;5029263;28;20267;-60
2022/03/10 04:30:52;;;;;;;41.80;18.73;;;-3.00;69.80;;;;;;5048171;28;20301;-60
2022/03/10 04:33:18;;;;;;;49.80;19.80;;;-3.00;70.10;;;;;;5030521;28;20595;-60
2022/03/10 04:35:44;;;;;;;47.03;18.93;;;-3.00;70.90;;;;;;5026125;28;20189;-59
2022/03/10 04:38:10;;;;;;;44.60;19.87;;;-3.00;71.30;;;;;;5036424;28;20679;-60
2022/03/10 04:40:37;;;;;;;49.13;18.70;;;-3.00;71.10;;;;;;5048614;28;20442;-59
2022/03/10 04:43:03;;;;;;;37.97;18.20;;;-3.10;71.20;;;;;;5041916;28;20901;-58
2022/03/10 04:45:29;;;;;;;45.40;19.40;;;-3.10;71.70;;;;;;5029986;28;20401;-60
2022/03/10 04:47:55;;;;;;;41.70;19.50;;;-3.10;72.70;;;;;;5048297;28;20406;-59
2022/03/10 04:50:21;;;;;;;43.23;21.43;;;-3.10;73.40;;;;;;5047208;28;20196;-60
2022/03/10 04:52:46;;;;;;;45.17;20.17;;;-3.10;72.30;;;;;;5050908;28;20264;-60
2022/03/10 04:55:13;;;;;;;43.67;20.00;;;-3.10;71.10;;;;;;5049286;28;20503;-59
2022/03/10 04:57:39;;;;;;;48.13;18.70;;;-3.10;70.10;;;;;;5044646;28;20201;-61
2022/03/10 05:00:11;;;;;;;37.53;17.93;;;-3.10;69.60;;;;;;5024451;28;21967;-60
2022/03/10 05:02:41;;;;;;;51.00;20.13;;;-3.10;70.60;;;;;;5043757;28;20517;-60
2022/03/10 05:05:07;;;;;;;46.33;20.00;;;-3.10;71.50;;;;;;5043537;28;21197;-59
2022/03/10 05:07:34;;;;;;;48.70;18.97;;;-3.10;72.30;;;;;;5043480;28;20399;-56
2022/03/10 05:09:59;;;;;;;42.30;18.10;;;-3.10;72.20;;;;;;5048446;28;20457;-60
2022/03/10 05:12:26;;;;;;;45.93;19.10;;;-3.10;72.00;;;;;;5027452;28;20445;-60
2022/03/10 05:14:51;;;;;;;42.93;18.47;;;-3.10;72.10;;;;;;5046543;28;20184;-61
2022/03/10 05:17:17;;;;;;;46.27;19.30;;;-3.10;72.80;;;;;;5023608;28;20446;-58
2022/03/10 05:19:43;;;;;;;42.17;19.17;;;-3.10;73.50;;;;;;5044874;28;20207;-60
2022/03/10 05:22:09;;;;;;;48.50;18.27;;;-3.20;74.10;;;;;;5046507;28;20588;-60
2022/03/10 05:24:34;;;;;;;44.60;22.10;;;-3.20;74.50;;;;;;5046432;28;20697;-59
2022/03/10 05:27:01;;;;;;;41.00;18.80;;;-3.20;74.70;;;;;;5042801;28;20652;-59
2022/03/10 05:29:27;;;;;;;45.47;19.93;;;-3.20;72.70;;;;;;5050599;28;20651;-59
2022/03/10 05:31:52;;;;;;;45.03;20.20;;;-3.20;71.80;;;;;;5048610;28;20413;-60
2022/03/10 05:34:19;;;;;;;45.50;20.10;;;-3.20;70.50;;;;;;5047752;28;20413;-59
2022/03/10 05:36:44;;;;;;;46.50;19.37;;;-3.20;70.20;;;;;;5047419;28;20259;-59
2022/03/10 05:39:10;;;;;;;37.90;18.20;;;-3.20;70.00;;;;;;5049958;28;20429;-60
2022/03/10 05:41:36;;;;;;;48.70;18.47;;;-3.20;70.10;;;;;;5049168;28;20307;-59
2022/03/10 05:44:02;;;;;;;45.63;19.73;;;-3.30;70.70;;;;;;5045102;28;20194;-58
2022/03/10 05:46:28;;;;;;;45.63;20.20;;;-3.30;71.40;;;;;;5024595;28;21094;-60
2022/03/10 05:48:54;;;;;;;43.43;19.43;;;-3.30;72.10;;;;;;5044372;28;20949;-59
2022/03/10 05:51:20;;;;;;;46.17;19.50;;;-3.30;72.70;;;;;;5048521;28;20291;-58
2022/03/10 05:53:47;;;;;;;45.53;18.80;;;-3.30;72.80;;;;;;5046829;28;20413;-59
2022/03/10 05:56:13;;;;;;;45.50;18.50;;;-3.30;73.30;;;;;;5045748;28;20177;-61
2022/03/10 05:58:38;;;;;;;49.47;19.53;;;-3.30;73.80;;;;;;5048875;28;20523;-60
2022/03/10 06:01:04;;;;;;;43.50;18.83;;;-3.40;75.10;;;;;;5049405;28;20192;-62
2022/03/10 06:03:29;;;;;;;56.97;20.20;;;-3.40;76.30;;;;;;5045821;28;20173;-59
2022/03/10 06:05:55;;;;;;;44.87;20.63;;;-3.40;76.40;;;;;;5047381;28;20168;-60
2022/03/10 06:08:21;;;;;;;38.10;18.23;;;-3.30;74.30;;;;;;5043390;28;20181;-59
2022/03/10 06:10:47;;;;;;;43.13;18.10;;;-3.30;74.30;;;;;;5046419;28;20212;-59
2022/03/10 06:13:12;;;;;;;47.90;18.73;;;-3.30;74.10;;;;;;5046764;28;20180;-60
2022/03/10 06:15:38;;;;;;;38.73;18.60;;;-3.30;75.20;;;;;;5041885;28;20534;-59
2022/03/10 06:18:04;;;;;;;40.90;18.03;;;-3.30;75.90;;;;;;5050635;28;20548;-60
2022/03/10 06:20:30;;;;;;;36.90;17.40;;;-3.30;76.00;;;;;;5032522;28;20291;-60
2022/03/10 06:22:56;;;;;;;43.67;18.17;;;-3.20;76.80;;;;;;5047451;28;20489;-60
2022/03/10 06:25:22;;;;;;;40.53;18.43;;;-3.20;76.60;;;;;;5025058;28;20706;-60
2022/03/10 06:27:48;;;;;;;39.20;17.60;;;-3.20;76.70;;;;;;5050110;28;20476;-61
2022/03/10 06:30:14;;;;;;;47.73;18.57;;;-3.20;76.60;;;;;;5032722;28;20432;-60
2022/03/10 06:32:40;;;;;;;54.33;18.70;;;-3.20;75.90;;;;;;5031952;28;20380;-60
2022/03/10 06:35:06;;;;;;;43.33;19.40;;;-3.10;75.70;;;;;;5028735;28;20188;-60
2022/03/10 06:37:31;;;;;;;39.10;17.87;;;-3.10;75.30;;;;;;5042653;28;20188;-60
2022/03/10 06:39:57;;;;;;;41.77;16.97;;;-3.10;76.20;;;;;;5028782;28;20498;-60
2022/03/10 06:42:23;;;;;;;43.40;17.80;;;-3.10;76.30;;;;;;5029978;28;20233;-60
2022/03/10 06:44:49;;;;;;;40.03;17.93;;;-3.00;76.40;;;;;;5031845;28;20268;-61
2022/03/10 06:47:15;;;;;;;56.53;18.30;;;-3.00;76.70;;;;;;5030860;28;20204;-61
2022/03/10 06:49:41;;;;;;;42.07;18.83;;;-2.90;76.70;;;;;;5031966;28;20896;-61
2022/03/10 06:52:08;;;;;;;44.13;17.90;;;-2.90;76.70;;;;;;5049929;28;20353;-60
2022/03/10 06:54:34;;;;;;;41.80;17.83;;;-2.80;76.80;;;;;;5028761;28;20461;-61
2022/03/10 06:57:00;;;;;;;59.13;20.13;;;-2.70;77.00;;;;;;5025558;28;20397;-61
2022/03/10 06:59:26;;;;;;;43.53;18.50;;;-2.60;76.00;;;;;;5044244;28;20474;-61
2022/03/10 07:01:51;;;;;;;44.87;18.20;;;-2.50;76.40;;;;;;5047922;28;20834;-60
2022/03/10 07:04:17;;;;;;;45.03;19.40;;;-2.40;75.30;;;;;;5049391;28;20181;-60
2022/03/10 07:06:43;;;;;;;37.13;17.37;;;-2.30;75.00;;;;;;5049637;28;20260;-60
2022/03/10 07:09:08;;;;;;;41.27;16.30;;;-2.20;74.70;;;;;;5049441;28;20188;-60
2022/03/10 07:11:34;;;;;;;34.23;15.87;;;-2.10;74.00;;;;;;5047148;28;20212;-61
2022/03/10 07:14:00;;;;;;;43.00;19.07;;;-2.00;74.10;;;;;;5042060;28;20191;-61
2022/03/10 07:16:26;;;;;;;46.70;18.90;;;-1.90;73.10;;;;;;5024630;28;20595;-59
2022/03/10 07:18:52;;;;;;;39.57;18.13;;;-1.80;72.30;;;;;;5038041;28;20214;-60
2022/03/10 07:21:21;;;;;;;38.73;18.60;;;-1.70;71.90;;;;;;5029866;28;20438;-59
2022/03/10 07:23:47;;;;;;;40.13;18.70;;;-1.60;71.30;;;;;;5024531;28;20271;-61
2022/03/10 07:26:13;;;;;;;39.53;17.80;;;-1.40;70.70;;;;;;5064608;28;20439;-61
2022/03/10 07:28:40;;;;;;;45.83;20.77;;;-1.30;69.90;;;;;;5060294;28;20431;-60
2022/03/10 07:31:06;;;;;;;38.63;18.07;;;-1.30;69.80;;;;;;5030336;28;20211;-58
2022/03/10 07:33:31;;;;;;;39.23;17.60;;;-1.20;69.70;;;;;;5030660;28;20579;-61
2022/03/10 07:35:57;;;;;;;50.80;18.87;;;-1.10;69.00;;;;;;5030402;28;20197;-60
2022/03/10 07:38:23;;;;;;;46.00;18.20;;;-1.10;69.10;;;;;;5029893;28;20212;-61
2022/03/10 07:40:48;;;;;;;42.60;16.90;;;-1.00;69.70;;;;;;5029880;28;20201;-60
2022/03/10 07:43:15;;;;;;;35.00;16.03;;;-1.00;68.80;;;;;;5039412;28;20176;-59
2022/03/10 07:45:41;;;;;;;39.33;16.83;;;-0.90;68.30;;;;;;5042825;28;20189;-59
2022/03/10 07:48:06;;;;;;;35.50;16.23;;;-0.80;68.50;;;;;;5046314;28;20434;-60
2022/03/10 07:50:32;;;;;;;46.57;16.97;;;-0.80;67.70;;;;;;5049356;28;20855;-58
2022/03/10 07:52:58;;;;;;;44.87;17.83;;;-0.60;67.00;;;;;;5027537;28;20184;-60
2022/03/10 07:55:24;;;;;;;34.60;16.50;;;-0.50;66.60;;;;;;5030640;28;20181;-59
2022/03/10 07:57:49;;;;;;;36.07;17.20;;;-0.40;66.30;;;;;;5037676;28;20679;-60
2022/03/10 08:00:15;;;;;;;48.00;18.97;;;-0.30;65.90;;;;;;5045806;28;20205;-59
2022/03/10 08:02:41;;;;;;;34.80;15.90;;;-0.20;65.40;;;;;;5029174;28;20200;-60
2022/03/10 08:05:08;;;;;;;42.27;18.30;;;-0.10;64.50;;;;;;5047044;28;20515;-59
2022/03/10 08:07:34;;;;;;;41.10;18.53;;;0.00;64.10;;;;;;5048904;28;20422;-59
2022/03/10 08:10:01;;;;;;;44.70;18.60;;;0.10;63.90;;;;;;5048490;28;20458;-58
2022/03/10 08:12:30;;;;;;;37.37;18.77;;;0.30;64.20;;;;;;5048854;28;20430;-60
2022/03/10 08:14:56;;;;;;;41.20;18.07;;;0.40;63.80;;;;;;5044861;28;20692;-59
2022/03/10 08:17:22;;;;;;;40.63;18.53;;;0.60;63.60;;;;;;5031211;28;20426;-60
2022/03/10 08:19:48;;;;;;;38.47;17.80;;;0.70;63.20;;;;;;5049190;28;20479;-60
2022/03/10 08:22:17;;;;;;;38.03;17.60;;;0.80;62.60;;;;;;5045471;28;20236;-60
2022/03/10 08:24:44;;;;;;;34.53;16.53;;;0.90;62.20;;;;;;5049856;28;20215;-60
2022/03/10 08:27:09;;;;;;;35.10;16.70;;;1.00;61.90;;;;;;5053240;28;20416;-60
2022/03/10 08:29:35;;;;;;;36.40;17.33;;;1.10;61.60;;;;;;5053074;28;20603;-60
2022/03/10 08:32:01;;;;;;;36.93;16.33;;;1.20;60.70;;;;;;5051927;28;20619;-60
2022/03/10 08:34:26;;;;;;;31.10;16.80;;;1.40;60.10;;;;;;5050203;28;20815;-60
2022/03/10 08:36:52;;;;;;;35.27;17.30;;;1.50;59.50;;;;;;5041598;28;20186;-60
2022/03/10 08:39:18;;;;;;;29.40;14.80;;;1.60;59.10;;;;;;5047248;28;20205;-60
2022/03/10 08:41:44;;;;;;;35.03;16.30;;;1.80;59.10;;;;;;5034421;28;20207;-60
2022/03/10 08:44:12;;;;;;;39.43;17.83;;;1.90;58.70;;;;;;5052917;28;20435;-60
2022/03/10 08:46:38;;;;;;;38.57;16.30;;;2.10;58.70;;;;;;5047406;28;20437;-60
2022/03/10 08:49:04;;;;;;;39.00;17.43;;;2.30;58.30;;;;;;5052556;28;20585;-60
2022/03/10 08:51:29;;;;;;;29.60;16.40;;;2.50;57.80;;;;;;5051127;28;20531;-60
2022/03/10 08:53:55;;;;;;;32.30;15.07;;;2.60;57.40;;;;;;5053947;28;20295;-59
2022/03/10 08:56:21;;;;;;;36.87;16.63;;;2.80;57.00;;;;;;5050821;28;20656;-60
2022/03/10 08:58:46;;;;;;;31.13;16.03;;;3.00;56.60;;;;;;5053544;28;20857;-60
2022/03/10 09:01:12;;;;;;;34.30;16.47;;;3.10;56.40;;;;;;5052772;28;20669;-60
2022/03/10 09:03:38;;;;;;;34.43;16.90;;;3.30;56.40;;;;;;5065807;28;20587;-59
2022/03/10 09:06:04;;;;;;;42.00;17.80;;;3.50;55.70;;;;;;5057008;28;20247;-61
2022/03/10 09:08:30;;;;;;;35.80;16.47;;;3.70;55.50;;;;;;5051095;28;20429;-60
2022/03/10 09:10:55;;;;;;;32.97;15.63;;;3.90;55.00;;;;;;5051449;28;20209;-60
2022/03/10 09:13:22;;;;;;;38.00;14.43;;;4.10;54.40;;;;;;5053467;28;20182;-60
2022/03/10 09:15:48;;;;;;;30.40;14.73;;;4.30;53.90;;;;;;5041430;28;20270;-60
2022/03/10 09:18:14;;;;;;;38.10;14.83;;;4.50;53.90;;;;;;5047530;28;20429;-60
2022/03/10 09:20:40;;;;;;;28.80;14.13;;;4.80;54.00;;;;;;5052864;28;20824;-61
2022/03/10 09:23:06;;;;;;;31.13;14.87;;;5.00;54.00;;;;;;5040891;28;20171;-59
2022/03/10 09:25:31;;;;;;;30.13;14.30;;;5.30;53.50;;;;;;5046585;28;20525;-61
2022/03/10 09:27:57;;;;;;;28.47;14.10;;;5.60;53.20;;;;;;5057067;28;20864;-60
2022/03/10 09:30:23;;;;;;;24.30;12.70;;;5.80;51.90;;;;;;5052373;28;20187;-60
2022/03/10 09:32:48;;;;;;;20.73;11.03;;;6.10;50.30;;;;;;5048932;28;20188;-60
2022/03/10 09:35:16;;;;;;;23.20;11.50;;;6.30;49.10;;;;;;5048171;28;20182;-60
2022/03/10 09:37:42;;;;;;;22.97;11.07;;;6.50;47.90;;;;;;5053082;28;20686;-61
2022/03/10 09:40:09;;;;;;;23.80;12.10;;;6.80;47.00;;;;;;5058136;28;20540;-60
2022/03/10 09:42:36;;;;;;;25.93;12.20;;;7.10;46.50;;;;;;5051064;28;20198;-61
2022/03/10 09:45:08;;;;;;;18.90;11.77;;;7.30;45.80;;;;;;5050987;28;20422;-61
2022/03/10 09:47:35;;;;;;;19.80;10.50;;;7.50;45.10;;;;;;5054761;28;20578;-60
2022/03/10 09:50:04;;;;;;;19.97;10.97;;;7.80;44.00;;;;;;5051741;28;20532;-62
2022/03/10 09:52:31;;;;;;;25.17;10.80;;;7.90;43.70;;;;;;5052083;28;20595;-61
2022/03/10 09:54:58;;;;;;;19.53;10.30;;;8.10;43.40;;;;;;5067456;28;20441;-60
2022/03/10 09:57:24;;;;;;;21.87;10.90;;;8.30;42.50;;;;;;5027630;28;20429;-61
2022/03/10 09:59:57;;;;;;;22.20;9.90;;;8.50;42.20;;;;;;5033158;28;20600;-62
2022/03/10 10:02:23;;;;;;;16.20;8.50;;;8.60;41.10;;;;;;5055016;28;20187;-62
2022/03/10 10:04:49;;;;;;;18.47;9.40;;;8.80;40.50;;;;;;5032748;28;20429;-61
2022/03/10 10:07:21;;;;;;;18.60;10.27;;;9.00;40.30;;;;;;5028990;28;20206;-61
2022/03/10 10:09:54;;;;;;;16.10;9.67;;;9.10;39.50;;;;;;5049218;28;20457;-61
2022/03/10 10:12:24;;;;;;;19.50;9.90;;;9.30;39.10;;;;;;5032504;28;20504;-61
2022/03/10 10:14:50;;;;;;;17.13;9.00;;;9.50;38.50;;;;;;5046470;28;20438;-61
2022/03/10 10:17:24;;;;;;;16.00;8.30;;;9.60;39.00;;;;;;5045176;28;20440;-63
2022/03/10 10:19:54;;;;;;;20.03;8.70;;;9.80;37.80;;;;;;5047451;28;20548;-61
2022/03/10 10:22:20;;;;;;;16.67;8.47;;;9.90;37.10;;;;;;5048292;28;20512;-63
2022/03/10 10:24:53;;;;;;;16.03;8.37;;;10.00;36.00;;;;;;5052826;28;20999;-62
2022/03/10 10:27:33;;;;;;;13.73;8.30;;;10.20;34.10;;;;;;5060547;28;20171;-62
2022/03/10 10:30:01;;;;;;;13.77;7.57;;;10.30;34.00;;;;;;5051035;28;20449;-62
2022/03/10 10:32:31;;;;;;;15.33;7.97;;;10.50;33.30;;;;;;5048968;28;20528;-62
2022/03/10 10:35:13;;;;;;;22.10;8.70;;;10.60;32.30;;;;;;5046840;28;21018;-61
2022/03/10 10:37:42;;;;;;;18.20;9.70;;;10.80;31.30;;;;;;5040554;28;20861;-61
2022/03/10 10:40:09;;;;;;;17.73;7.63;;;10.90;31.20;;;;;;5046216;28;20457;-61
2022/03/10 10:42:37;;;;;;;14.90;7.37;;;11.10;31.00;;;;;;5051006;28;20424;-61
2022/03/10 10:45:30;;;;;;;11.40;6.73;;;11.20;30.40;;;;;;5063227;28;20987;-62
2022/03/10 10:48:08;;;;;;;12.50;7.10;;;11.40;29.70;;;;;;5044097;28;20517;-61
2022/03/10 10:50:44;;;;;;;13.47;6.40;;;11.50;29.60;;;;;;5047182;28;20448;-61
2022/03/10 10:53:30;;;;;;;10.83;6.60;;;11.70;29.00;;;;;;5050235;28;20393;-61
2022/03/10 10:55:57;;;;;;;12.03;6.83;;;11.70;28.80;;;;;;5047202;28;20449;-61
2022/03/10 10:58:25;;;;;;;12.50;7.00;;;11.80;28.40;;;;;;5049047;28;20414;-61
2022/03/10 11:00:51;;;;;;;13.30;6.50;;;11.90;28.70;;;;;;5046844;28;20568;-61
2022/03/10 11:03:32;;;;;;;20.77;7.50;;;12.00;28.90;;;;;;5042660;28;20957;-62
2022/03/10 11:05:58;;;;;;;9.90;6.40;;;12.20;28.90;;;;;;5047600;28;20185;-62
2022/03/10 11:08:26;;;;;;;9.00;6.17;;;12.40;28.60;;;;;;5046147;28;20680;-62
2022/03/10 11:10:52;;;;;;;10.03;6.60;;;12.50;28.40;;;;;;5042529;28;20619;-61
2022/03/10 11:13:19;;;;;;;15.20;7.63;;;12.70;28.40;;;;;;5039326;28;20966;-63
2022/03/10 11:15:45;;;;;;;11.17;6.40;;;12.80;28.00;;;;;;5039492;28;20445;-61
2022/03/10 11:18:13;;;;;;;10.20;6.10;;;13.00;27.70;;;;;;5043093;28;20728;-62
2022/03/10 11:20:42;;;;;;;12.43;6.23;;;13.10;28.10;;;;;;5045165;28;20760;-62
2022/03/10 11:23:34;;;;;;;10.83;5.90;;;13.20;27.60;;;;;;5054612;28;20434;-61
2022/03/10 11:26:23;;;;;;;14.50;6.80;;;13.40;27.80;;;;;;5035940;28;20421;-61
2022/03/10 11:28:52;;;;;;;12.53;6.50;;;13.70;27.80;;;;;;5048451;28;20509;-62
2022/03/10 11:31:18;;;;;;;9.97;5.70;;;14.00;28.00;;;;;;5030947;28;20438;-62
2022/03/10 11:33:44;;;;;;;8.77;4.93;;;14.30;27.60;;;;;;5047214;28;20460;-61
2022/03/10 11:36:28;;;;;;;5.90;4.37;;;14.60;27.00;;;;;;5049255;28;20983;-62
2022/03/10 11:39:12;;;;;;;8.93;5.80;;;15.00;26.40;;;;;;5028117;28;20453;-61
2022/03/10 11:41:47;;;;;;;12.20;5.73;;;15.50;26.40;;;;;;5049251;28;20798;-63
2022/03/10 11:44:18;;;;;;;8.33;5.87;;;15.90;26.10;;;;;;5049572;28;20428;-63
2022/03/10 11:46:57;;;;;;;10.27;6.20;;;16.40;25.90;;;;;;5050272;28;20452;-63
2022/03/10 11:49:26;;;;;;;10.20;5.50;;;16.70;25.60;;;;;;5046817;28;20444;-62
2022/03/10 11:51:56;;;;;;;6.37;4.77;;;17.00;25.10;;;;;;5048711;28;20433;-62
2022/03/10 11:54:27;;;;;;;10.70;5.23;;;17.10;24.70;;;;;;5046620;28;20451;-63
2022/03/10 11:56:55;;;;;;;9.17;5.53;;;17.40;25.00;;;;;;5047603;28;20780;-63
2022/03/10 11:59:26;;;;;;;8.37;4.83;;;17.50;24.80;;;;;;5047879;28;20465;-62
2022/03/10 12:01:55;;;;;;;6.70;4.27;;;17.70;24.60;;;;;;5047839;28;20436;-61
2022/03/10 12:04:40;;;;;;;4.30;3.00;;;17.80;24.00;;;;;;5052629;28;20790;-61
2022/03/10 12:07:14;;;;;;;6.17;4.03;;;17.90;24.20;;;;;;5047686;28;20426;-61
2022/03/10 12:09:41;;;;;;;8.77;4.23;;;17.90;25.80;;;;;;5047835;28;20940;-60
2022/03/10 12:12:21;;;;;;;9.33;3.57;;;18.10;28.50;;;;;;5047859;28;20516;-61
2022/03/10 12:14:47;;;;;;;7.17;3.83;;;18.20;27.00;;;;;;5043194;28;20833;-62
2022/03/10 12:17:44;;;;;;;5.43;4.20;;;18.30;24.80;;;;;;5048009;28;20433;-62
2022/03/10 12:20:10;;;;;;;19.23;4.87;;;18.20;23.60;;;;;;5044203;28;20469;-62
2022/03/10 12:22:36;;;;;;;8.80;4.73;;;18.20;23.50;;;;;;5046889;28;20497;-62
2022/03/10 12:25:18;;;;;;;12.83;4.67;;;18.00;23.70;;;;;;5048000;28;20421;-63
2022/03/10 12:27:53;;;;;;;7.17;4.60;;;17.80;24.00;;;;;;5040830;28;20429;-62
2022/03/10 12:30:27;;;;;;;9.23;4.70;;;17.80;24.00;;;;;;5033385;28;21015;-61
2022/03/10 12:32:55;;;;;;;5.70;4.47;;;17.80;23.50;;;;;;5043731;28;20437;-66
2022/03/10 12:35:32;;;;;;;7.60;4.87;;;17.90;23.60;;;;;;5034011;28;20435;-63
2022/03/10 12:37:57;;;;;;;6.20;4.97;;;18.00;23.30;;;;;;5042167;28;20436;-62